Аэропорт: Магнитогорск. Магнитогорск

ICAO: USCM

METAR:
2021-01-24 17:30:00
USCM 241730Z 26009MPS 6000 BKN013CB M01/M02 Q1025 R18/810155 TEMPO 23015MPS 1500 SHSN VV003 RMK QFE730
METAR:
Информация по данной станции не доступна